createdAt,value
2023-01-24T00:00:14.018Z,1031.72
2023-01-24T00:01:14.008Z,1031.70
2023-01-24T00:02:14.114Z,1031.74
2023-01-24T00:03:14.124Z,1031.73
2023-01-24T00:04:14.016Z,1031.73
2023-01-24T00:05:14.008Z,1031.77
2023-01-24T00:06:14.012Z,1031.74
2023-01-24T00:07:13.975Z,1031.78
2023-01-24T00:08:14.104Z,1031.80
2023-01-24T00:09:13.966Z,1031.79
2023-01-24T00:10:13.969Z,1031.77
2023-01-24T00:11:13.970Z,1031.76
2023-01-24T00:12:13.975Z,1031.77
2023-01-24T00:13:13.947Z,1031.76
2023-01-24T00:14:13.956Z,1031.72
2023-01-24T00:15:13.963Z,1031.74
2023-01-24T00:16:14.069Z,1031.73
2023-01-24T00:17:13.934Z,1031.77
2023-01-24T00:18:13.914Z,1031.78
2023-01-24T00:19:13.938Z,1031.77
2023-01-24T00:20:13.936Z,1031.78
2023-01-24T00:21:13.907Z,1031.81
2023-01-24T00:22:13.900Z,1031.79
2023-01-24T00:23:13.889Z,1031.79
2023-01-24T00:24:14.061Z,1031.77
2023-01-24T00:25:13.875Z,1031.76
2023-01-24T00:26:13.879Z,1031.76
2023-01-24T00:27:13.874Z,1031.76
2023-01-24T00:28:13.871Z,1031.71
2023-01-24T00:29:13.862Z,1031.74
2023-01-24T00:30:13.865Z,1031.80
2023-01-24T00:31:13.952Z,1031.76
2023-01-24T00:32:13.844Z,1031.80
2023-01-24T00:33:13.841Z,1031.80
2023-01-24T00:34:13.847Z,1031.82
2023-01-24T00:35:13.835Z,1031.80
2023-01-24T00:36:13.817Z,1031.80
2023-01-24T00:37:13.816Z,1031.83
2023-01-24T00:38:13.818Z,1031.83
2023-01-24T00:39:13.798Z,1031.88
2023-01-24T00:40:13.914Z,1031.82
2023-01-24T00:41:13.779Z,1031.84
2023-01-24T00:42:13.801Z,1031.86
2023-01-24T00:43:13.770Z,1031.83
2023-01-24T00:44:13.781Z,1031.87
2023-01-24T00:45:13.773Z,1031.90
2023-01-24T00:46:13.843Z,1031.85
2023-01-24T00:47:13.767Z,1031.84
2023-01-24T00:48:13.751Z,1031.90
2023-01-24T00:49:13.751Z,1031.89
2023-01-24T00:50:13.751Z,1031.91
2023-01-24T00:51:13.740Z,1031.91
2023-01-24T00:52:13.736Z,1031.93
2023-01-24T00:53:13.717Z,1031.90
2023-01-24T00:54:13.718Z,1031.88
2023-01-24T00:55:13.710Z,1031.90
2023-01-24T00:56:13.825Z,1031.83
2023-01-24T00:57:13.714Z,1031.84
2023-01-24T00:58:13.684Z,1031.81
2023-01-24T00:59:13.707Z,1031.82
2023-01-24T01:00:13.686Z,1031.83
2023-01-24T01:01:13.682Z,1031.82
2023-01-24T01:02:13.698Z,1031.85
2023-01-24T01:03:13.766Z,1031.87
2023-01-24T01:04:14.032Z,1031.87
2023-01-24T01:05:13.672Z,1031.86
2023-01-24T01:06:13.672Z,1031.85
2023-01-24T01:07:13.633Z,1031.89
2023-01-24T01:08:13.652Z,1031.91
2023-01-24T01:09:13.638Z,1031.89
2023-01-24T01:10:13.641Z,1031.91
2023-01-24T01:11:13.623Z,1031.92
2023-01-24T01:12:13.731Z,1031.95
2023-01-24T01:13:13.623Z,1031.92
2023-01-24T01:14:13.606Z,1031.97
2023-01-24T01:15:13.603Z,1031.95
2023-01-24T01:16:13.684Z,1031.90
2023-01-24T01:17:13.576Z,1031.92
2023-01-24T01:18:13.566Z,1031.89
2023-01-24T01:19:13.575Z,1031.91
2023-01-24T01:20:13.570Z,1031.94
2023-01-24T01:21:13.555Z,1031.93
2023-01-24T01:22:13.544Z,1031.93
2023-01-24T01:23:13.540Z,1031.91
2023-01-24T01:24:13.599Z,1031.95
2023-01-24T01:25:13.538Z,1031.91
2023-01-24T01:26:13.545Z,1031.91
2023-01-24T01:27:13.531Z,1031.92
2023-01-24T01:28:13.630Z,1031.93
2023-01-24T01:29:13.534Z,1031.92
2023-01-24T01:30:13.522Z,1031.92
2023-01-24T01:31:13.666Z,1031.90
2023-01-24T01:32:13.536Z,1031.85
2023-01-24T01:33:13.501Z,1031.86
2023-01-24T01:34:13.483Z,1031.86
2023-01-24T01:35:13.471Z,1031.87
2023-01-24T01:36:13.473Z,1031.88
2023-01-24T01:37:13.474Z,1031.91
2023-01-24T01:38:13.448Z,1031.92
2023-01-24T01:39:13.446Z,1031.97
2023-01-24T01:40:13.459Z,1031.95
2023-01-24T01:41:13.503Z,1031.97
2023-01-24T01:42:13.479Z,1031.95
2023-01-24T01:43:13.435Z,1032.03
2023-01-24T01:44:13.541Z,1032.04
2023-01-24T01:45:13.427Z,1031.97
2023-01-24T01:46:13.418Z,1031.98
2023-01-24T01:47:13.413Z,1031.98
2023-01-24T01:48:13.393Z,1031.95
2023-01-24T01:49:13.408Z,1031.98
2023-01-24T01:50:13.397Z,1031.95
2023-01-24T01:51:13.599Z,1031.96
2023-01-24T01:52:13.374Z,1031.99
2023-01-24T01:53:55.736Z,1031.98
2023-01-24T01:54:55.747Z,1032.05
2023-01-24T01:55:55.740Z,1032.02
2023-01-24T01:56:55.743Z,1032.05
2023-01-24T01:57:55.713Z,1032.06
2023-01-24T01:58:55.707Z,1031.99
2023-01-24T01:59:55.836Z,1032.01
2023-01-24T02:00:55.720Z,1032.04
2023-01-24T02:01:55.736Z,1032.04
2023-01-24T02:02:55.689Z,1032.04
2023-01-24T02:03:55.704Z,1032.06
2023-01-24T02:04:55.708Z,1032.04
2023-01-24T02:05:55.678Z,1032.06
2023-01-24T02:06:55.659Z,1031.98
2023-01-24T02:07:55.675Z,1031.99
2023-01-24T02:08:55.648Z,1032.04
2023-01-24T02:09:55.658Z,1032.10
2023-01-24T02:10:55.633Z,1032.12
2023-01-24T02:11:55.651Z,1032.12
2023-01-24T02:12:55.643Z,1032.10
2023-01-24T02:13:55.646Z,1032.15
2023-01-24T02:14:55.618Z,1032.13
2023-01-24T02:15:55.742Z,1032.13
2023-01-24T02:16:55.607Z,1032.12
2023-01-24T02:17:55.618Z,1032.13
2023-01-24T02:18:55.613Z,1032.10
2023-01-24T02:19:55.580Z,1032.07
2023-01-24T02:20:55.590Z,1032.08
2023-01-24T02:21:55.568Z,1032.06
2023-01-24T02:22:55.584Z,1032.08
2023-01-24T02:23:55.653Z,1032.08
2023-01-24T02:24:55.557Z,1032.06
2023-01-24T02:25:55.560Z,1032.04
2023-01-24T02:26:55.547Z,1032.03
2023-01-24T02:27:55.540Z,1032.08
2023-01-24T02:28:55.530Z,1032.05
2023-01-24T02:29:55.522Z,1032.05
2023-01-24T02:30:55.545Z,1032.06
2023-01-24T02:31:55.687Z,1032.05
2023-01-24T02:32:55.500Z,1032.00
2023-01-24T02:33:55.517Z,1032.01
2023-01-24T02:34:55.497Z,1031.96
2023-01-24T02:35:55.506Z,1032.02
2023-01-24T02:36:55.489Z,1032.01
2023-01-24T02:37:55.474Z,1032.00
2023-01-24T02:38:55.472Z,1032.01
2023-01-24T02:39:55.490Z,1032.01
2023-01-24T02:40:55.469Z,1032.04
2023-01-24T02:41:55.459Z,1032.05
2023-01-24T02:42:55.465Z,1032.03
2023-01-24T02:43:55.463Z,1032.02
2023-01-24T02:44:55.458Z,1032.06
2023-01-24T02:45:55.499Z,1032.00
2023-01-24T02:46:55.437Z,1032.05
2023-01-24T02:47:55.539Z,1032.02
2023-01-24T02:48:55.417Z,1032.02
2023-01-24T02:49:55.416Z,1031.99
2023-01-24T02:50:55.418Z,1031.94
2023-01-24T02:51:55.418Z,1031.93
2023-01-24T02:52:55.388Z,1031.93
2023-01-24T02:53:55.400Z,1031.91
2023-01-24T02:54:55.377Z,1031.95
2023-01-24T02:55:55.392Z,1031.94
2023-01-24T02:56:55.384Z,1031.97
2023-01-24T02:57:55.387Z,1031.97
2023-01-24T02:58:55.362Z,1031.98
2023-01-24T02:59:55.377Z,1032.00
2023-01-24T03:00:55.415Z,1032.03
2023-01-24T03:01:55.439Z,1031.99
2023-01-24T03:02:55.340Z,1032.02
2023-01-24T03:03:55.454Z,1032.00
2023-01-24T03:04:55.313Z,1031.96
2023-01-24T03:05:55.333Z,1031.94
2023-01-24T03:06:55.307Z,1031.91
2023-01-24T03:07:55.312Z,1031.97
2023-01-24T03:08:55.293Z,1031.96
2023-01-24T03:09:55.288Z,1031.93
2023-01-24T03:10:55.299Z,1031.92
2023-01-24T03:11:55.281Z,1031.94
2023-01-24T03:12:55.275Z,1031.94
2023-01-24T03:13:55.278Z,1031.91
2023-01-24T03:14:55.280Z,1031.93
2023-01-24T03:15:55.276Z,1031.94
2023-01-24T03:16:55.308Z,1031.99
2023-01-24T03:17:55.257Z,1031.99
2023-01-24T03:18:55.243Z,1032.01
2023-01-24T03:19:55.351Z,1032.02
2023-01-24T03:20:55.227Z,1032.01
2023-01-24T03:21:55.220Z,1031.99
2023-01-24T03:22:55.212Z,1032.01
2023-01-24T03:23:55.236Z,1032.01
2023-01-24T03:24:55.212Z,1032.01
2023-01-24T03:25:55.206Z,1032.01
2023-01-24T03:26:55.199Z,1031.98
2023-01-24T03:27:55.201Z,1031.94
2023-01-24T03:28:55.173Z,1031.98
2023-01-24T03:29:55.178Z,1031.93
2023-01-24T03:30:55.160Z,1031.91
2023-01-24T03:31:55.244Z,1031.95
2023-01-24T03:32:55.149Z,1031.92
2023-01-24T03:33:55.151Z,1031.87
2023-01-24T03:34:55.138Z,1031.86
2023-01-24T03:35:55.153Z,1031.80
2023-01-24T03:36:55.146Z,1031.80
2023-01-24T03:37:55.134Z,1031.84
2023-01-24T03:38:55.118Z,1031.80
2023-01-24T03:39:55.114Z,1031.80
2023-01-24T03:40:55.125Z,1031.81
2023-01-24T03:41:55.137Z,1031.75
2023-01-24T03:42:55.125Z,1031.79
2023-01-24T03:43:55.097Z,1031.76
2023-01-24T03:44:55.076Z,1031.79
2023-01-24T03:45:55.235Z,1031.82
2023-01-24T03:46:55.081Z,1031.82
2023-01-24T03:47:55.081Z,1031.84
2023-01-24T03:48:55.071Z,1031.86
2023-01-24T03:49:55.050Z,1031.85
2023-01-24T03:50:55.046Z,1031.80
2023-01-24T03:51:55.153Z,1031.87
2023-01-24T03:52:55.041Z,1031.84
2023-01-24T03:53:55.056Z,1031.86
2023-01-24T03:54:55.036Z,1031.87
2023-01-24T03:55:55.017Z,1031.84
2023-01-24T03:56:55.032Z,1031.83
2023-01-24T03:57:55.019Z,1031.86
2023-01-24T03:58:54.995Z,1031.84
2023-01-24T03:59:55.004Z,1031.84
2023-01-24T04:00:55.035Z,1031.84
2023-01-24T04:01:54.999Z,1031.85
2023-01-24T04:02:54.968Z,1031.83
2023-01-24T04:03:54.981Z,1031.82
2023-01-24T04:04:54.973Z,1031.80
2023-01-24T04:05:54.989Z,1031.78
2023-01-24T04:06:54.947Z,1031.82
2023-01-24T04:07:55.071Z,1031.79
2023-01-24T04:08:54.935Z,1031.77
2023-01-24T04:09:54.948Z,1031.78
2023-01-24T04:10:54.937Z,1031.74
2023-01-24T04:11:54.940Z,1031.77
2023-01-24T04:12:54.915Z,1031.77
2023-01-24T04:13:54.932Z,1031.81
2023-01-24T04:14:54.923Z,1031.81
2023-01-24T04:15:54.901Z,1031.78
2023-01-24T04:16:54.944Z,1031.83
2023-01-24T04:17:54.906Z,1031.81
2023-01-24T04:18:54.879Z,1031.83
2023-01-24T04:19:54.890Z,1031.81
2023-01-24T04:20:54.866Z,1031.84
2023-01-24T04:21:54.894Z,1031.86
2023-01-24T04:22:54.855Z,1031.87
2023-01-24T04:23:54.980Z,1031.86
2023-01-24T04:24:54.857Z,1031.85
2023-01-24T04:25:54.852Z,1031.85
2023-01-24T04:26:54.839Z,1031.85
2023-01-24T04:27:54.838Z,1031.91
2023-01-24T04:28:54.837Z,1031.93
2023-01-24T04:29:54.859Z,1031.94
2023-01-24T04:30:54.914Z,1031.92
2023-01-24T04:31:54.853Z,1031.96
2023-01-24T04:32:54.788Z,1031.92
2023-01-24T04:33:54.799Z,1031.92
2023-01-24T04:34:54.781Z,1031.91
2023-01-24T04:35:54.779Z,1031.94
2023-01-24T04:36:54.785Z,1031.94
2023-01-24T04:37:54.776Z,1031.94
2023-01-24T04:38:54.784Z,1031.97
2023-01-24T04:39:54.876Z,1032.00
2023-01-24T04:40:54.745Z,1031.96
2023-01-24T04:41:54.768Z,1031.96
2023-01-24T04:42:54.746Z,1032.00
2023-01-24T04:43:54.735Z,1031.95
2023-01-24T04:44:54.747Z,1031.93
2023-01-24T04:45:54.733Z,1031.93
2023-01-24T04:46:54.775Z,1031.91
2023-01-24T04:47:54.741Z,1031.90
2023-01-24T04:48:54.717Z,1031.88
2023-01-24T04:49:54.690Z,1031.91
2023-01-24T04:50:54.704Z,1031.91
2023-01-24T04:51:54.696Z,1031.85
2023-01-24T04:52:54.684Z,1031.88
2023-01-24T04:53:54.685Z,1031.86
2023-01-24T04:54:54.685Z,1031.88
2023-01-24T04:55:54.779Z,1031.93
2023-01-24T04:56:54.662Z,1031.90
2023-01-24T04:57:54.655Z,1031.91
2023-01-24T04:58:54.656Z,1031.88
2023-01-24T04:59:54.654Z,1031.86
2023-01-24T05:00:54.657Z,1031.84
2023-01-24T05:01:54.705Z,1031.87
2023-01-24T05:02:54.654Z,1031.85
2023-01-24T05:03:54.621Z,1031.82
2023-01-24T05:04:54.620Z,1031.79
2023-01-24T05:05:54.607Z,1031.81
2023-01-24T05:06:54.616Z,1031.83
2023-01-24T05:07:54.609Z,1031.80
2023-01-24T05:08:54.597Z,1031.85
2023-01-24T05:09:54.596Z,1031.87
2023-01-24T05:10:54.580Z,1031.87
2023-01-24T05:11:54.680Z,1031.86
2023-01-24T05:12:54.587Z,1031.89
2023-01-24T05:13:54.554Z,1031.88
2023-01-24T05:14:54.579Z,1031.87
2023-01-24T05:15:54.551Z,1031.89
2023-01-24T05:16:54.611Z,1031.89
2023-01-24T05:17:54.548Z,1031.86
2023-01-24T05:18:54.534Z,1031.85
2023-01-24T05:19:54.539Z,1031.85
2023-01-24T05:20:54.593Z,1031.89
2023-01-24T05:21:54.510Z,1031.90
2023-01-24T05:22:54.521Z,1031.89
2023-01-24T05:23:54.553Z,1031.94
2023-01-24T05:24:54.501Z,1031.95
2023-01-24T05:25:54.486Z,1031.92
2023-01-24T05:26:54.493Z,1031.94
2023-01-24T05:27:54.603Z,1031.93
2023-01-24T05:28:54.485Z,1031.94
2023-01-24T05:29:54.457Z,1031.94
2023-01-24T05:30:54.497Z,1031.97
2023-01-24T05:31:54.535Z,1031.94
2023-01-24T05:32:54.454Z,1032.00
2023-01-24T05:33:54.437Z,1031.99
2023-01-24T05:34:54.444Z,1031.99
2023-01-24T05:35:54.425Z,1031.97
2023-01-24T05:36:54.441Z,1032.02
2023-01-24T05:37:54.413Z,1032.01
2023-01-24T05:38:54.410Z,1032.02
2023-01-24T05:39:54.412Z,1032.03
2023-01-24T05:40:54.404Z,1031.99
2023-01-24T05:41:54.403Z,1031.97
2023-01-24T05:42:54.398Z,1032.03
2023-01-24T05:43:54.517Z,1032.05
2023-01-24T05:44:54.379Z,1032.03
2023-01-24T05:45:54.434Z,1032.02
2023-01-24T05:46:54.389Z,1031.99
2023-01-24T05:47:54.366Z,1032.01
2023-01-24T05:48:54.352Z,1032.03
2023-01-24T05:49:54.358Z,1032.02
2023-01-24T05:50:54.339Z,1032.04
2023-01-24T05:51:54.348Z,1032.04
2023-01-24T05:52:54.329Z,1032.01
2023-01-24T05:53:54.342Z,1032.03
2023-01-24T05:54:54.333Z,1032.07
2023-01-24T05:55:54.308Z,1032.07
2023-01-24T05:56:54.314Z,1032.06
2023-01-24T05:57:54.322Z,1032.08
2023-01-24T05:58:54.292Z,1032.10
2023-01-24T05:59:54.404Z,1032.12
2023-01-24T06:00:54.292Z,1032.14
2023-01-24T06:01:54.292Z,1032.15
2023-01-24T06:02:54.448Z,1032.14
2023-01-24T06:03:54.293Z,1032.13
2023-01-24T06:04:54.272Z,1032.13
2023-01-24T06:05:54.265Z,1032.11
2023-01-24T06:06:54.262Z,1032.12
2023-01-24T06:07:54.246Z,1032.14
2023-01-24T06:08:54.243Z,1032.17
2023-01-24T06:09:54.237Z,1032.13
2023-01-24T06:10:54.220Z,1032.19
2023-01-24T06:11:54.228Z,1032.19
2023-01-24T06:12:54.225Z,1032.22
2023-01-24T06:13:54.219Z,1032.19
2023-01-24T06:14:54.234Z,1032.20
2023-01-24T06:15:54.356Z,1032.21
2023-01-24T06:16:54.198Z,1032.21
2023-01-24T06:17:54.214Z,1032.27
2023-01-24T06:18:54.233Z,1032.45
2023-01-24T06:19:54.169Z,1032.27
2023-01-24T06:20:54.253Z,1032.32
2023-01-24T06:21:54.164Z,1032.35
2023-01-24T06:22:54.179Z,1032.37
2023-01-24T06:23:54.192Z,1032.35
2023-01-24T06:24:54.158Z,1032.41
2023-01-24T06:25:54.140Z,1032.39
2023-01-24T06:26:54.141Z,1032.42
2023-01-24T06:27:54.159Z,1032.40
2023-01-24T06:28:54.129Z,1032.40
2023-01-24T06:29:54.121Z,1032.39
2023-01-24T06:30:54.180Z,1032.42
2023-01-24T06:31:54.314Z,1032.39
2023-01-24T06:32:54.129Z,1032.44
2023-01-24T06:33:54.114Z,1032.38
2023-01-24T06:34:54.107Z,1032.41
2023-01-24T06:35:54.106Z,1032.42
2023-01-24T06:37:36.364Z,1032.48
2023-01-24T06:38:36.371Z,1032.50
2023-01-24T06:39:36.351Z,1032.52
2023-01-24T06:40:36.337Z,1032.55
2023-01-24T06:41:36.339Z,1032.58
2023-01-24T06:42:36.334Z,1032.56
2023-01-24T06:43:36.350Z,1032.60
2023-01-24T06:44:36.329Z,1032.58
2023-01-24T06:45:36.328Z,1032.57
2023-01-24T06:46:36.367Z,1032.56
2023-01-24T06:47:36.417Z,1032.59
2023-01-24T06:48:36.323Z,1032.56
2023-01-24T06:49:36.313Z,1032.57
2023-01-24T06:50:36.575Z,1032.57
2023-01-24T06:51:36.361Z,1032.59
2023-01-24T06:52:36.301Z,1032.61
2023-01-24T06:53:36.283Z,1032.60
2023-01-24T06:54:36.284Z,1032.58
2023-01-24T06:55:36.277Z,1032.57
2023-01-24T06:56:36.263Z,1032.59
2023-01-24T06:57:36.266Z,1032.57
2023-01-24T06:58:36.250Z,1032.59
2023-01-24T06:59:36.259Z,1032.62
2023-01-24T07:00:36.259Z,1032.59
2023-01-24T07:01:36.323Z,1032.60
2023-01-24T07:02:36.342Z,1032.64
2023-01-24T07:03:36.347Z,1032.64
2023-01-24T07:04:36.232Z,1032.68
2023-01-24T07:05:36.237Z,1032.71
2023-01-24T07:06:36.224Z,1032.76
2023-01-24T07:07:36.215Z,1032.76
2023-01-24T07:08:36.214Z,1032.75
2023-01-24T07:09:36.212Z,1032.75
2023-01-24T07:10:36.225Z,1032.75
2023-01-24T07:11:36.210Z,1032.76
2023-01-24T07:12:36.190Z,1032.75
2023-01-24T07:13:36.187Z,1032.73
2023-01-24T07:14:36.199Z,1032.74
2023-01-24T07:15:36.301Z,1032.79
2023-01-24T07:16:37.880Z,1032.80
2023-01-24T07:17:36.197Z,1032.81
2023-01-24T07:18:36.209Z,1032.82
2023-01-24T07:19:36.317Z,1032.83
2023-01-24T07:20:36.174Z,1032.86
2023-01-24T07:21:36.143Z,1032.85
2023-01-24T07:22:36.160Z,1032.83
2023-01-24T07:23:36.158Z,1032.80
2023-01-24T07:24:36.138Z,1032.82
2023-01-24T07:25:36.141Z,1032.82
2023-01-24T07:26:36.136Z,1032.84
2023-01-24T07:27:36.129Z,1032.83
2023-01-24T07:28:36.128Z,1032.84
2023-01-24T07:29:36.133Z,1032.88
2023-01-24T07:30:36.113Z,1032.92
2023-01-24T07:31:36.215Z,1032.92
2023-01-24T07:32:36.099Z,1032.92
2023-01-24T07:33:36.124Z,1032.95
2023-01-24T07:34:36.091Z,1032.99
2023-01-24T07:35:36.107Z,1032.97
2023-01-24T07:36:36.079Z,1033.01
2023-01-24T07:37:36.073Z,1033.00
2023-01-24T07:38:36.064Z,1033.01
2023-01-24T07:39:36.045Z,1033.05
2023-01-24T07:40:36.065Z,1033.05
2023-01-24T07:41:36.052Z,1033.05
2023-01-24T07:42:36.044Z,1033.09
2023-01-24T07:43:36.053Z,1033.07
2023-01-24T07:44:36.044Z,1033.12
2023-01-24T07:45:36.107Z,1033.07
2023-01-24T07:46:36.024Z,1033.12
2023-01-24T07:47:36.038Z,1033.18
2023-01-24T07:48:36.004Z,1033.14
2023-01-24T07:49:35.994Z,1033.15
2023-01-24T07:50:36.013Z,1033.18
2023-01-24T07:51:36.017Z,1033.17
2023-01-24T07:52:35.990Z,1033.17
2023-01-24T07:53:35.984Z,1033.18
2023-01-24T07:54:35.991Z,1033.19
2023-01-24T07:55:35.980Z,1033.21
2023-01-24T07:56:35.982Z,1033.23
2023-01-24T07:57:35.969Z,1033.19
2023-01-24T07:58:35.978Z,1033.19
2023-01-24T07:59:39.155Z,1033.18
2023-01-24T08:00:35.970Z,1033.17
2023-01-24T08:01:35.961Z,1033.17
2023-01-24T08:02:35.952Z,1033.21
2023-01-24T08:03:35.948Z,1033.20
2023-01-24T08:04:36.048Z,1033.24
2023-01-24T08:05:35.913Z,1033.23
2023-01-24T08:06:35.918Z,1033.20
2023-01-24T08:07:35.947Z,1033.21
2023-01-24T08:08:35.900Z,1033.19
2023-01-24T08:09:35.911Z,1033.23
2023-01-24T08:10:35.896Z,1033.18
2023-01-24T08:11:35.883Z,1033.24
2023-01-24T08:12:35.896Z,1033.23
2023-01-24T08:13:35.891Z,1033.25
2023-01-24T08:14:35.888Z,1033.22
2023-01-24T08:15:35.877Z,1033.26
2023-01-24T08:16:35.969Z,1033.26
2023-01-24T08:17:35.866Z,1033.25
2023-01-24T08:18:35.871Z,1033.30
2023-01-24T08:19:54.890Z,1033.27
2023-01-24T08:20:35.836Z,1033.27
2023-01-24T08:21:35.830Z,1033.30
2023-01-24T08:22:40.813Z,1033.30
2023-01-24T08:23:35.855Z,1033.35
2023-01-24T08:24:35.835Z,1033.32
2023-01-24T08:25:35.830Z,1033.32
2023-01-24T08:26:35.813Z,1033.33
2023-01-24T08:27:35.809Z,1033.35
2023-01-24T08:28:35.797Z,1033.39
2023-01-24T08:29:35.791Z,1033.37
2023-01-24T08:30:35.801Z,1033.42
2023-01-24T08:31:35.880Z,1033.41
2023-01-24T08:32:35.772Z,1033.40
2023-01-24T08:33:35.766Z,1033.41
2023-01-24T08:34:35.778Z,1033.40
2023-01-24T08:35:37.590Z,1033.40
2023-01-24T08:36:35.766Z,1033.43
2023-01-24T08:37:35.746Z,1033.39
2023-01-24T08:38:35.754Z,1033.39
2023-01-24T08:39:35.763Z,1033.39
2023-01-24T08:40:48.696Z,1033.40
2023-01-24T08:41:35.731Z,1033.37
2023-01-24T08:42:35.739Z,1033.34
2023-01-24T08:43:35.730Z,1033.32
2023-01-24T08:44:35.726Z,1033.34
2023-01-24T08:45:35.702Z,1033.36
2023-01-24T08:46:35.814Z,1033.39
2023-01-24T08:47:35.698Z,1033.36
2023-01-24T08:48:35.698Z,1033.40
2023-01-24T08:49:35.672Z,1033.41
2023-01-24T08:50:35.681Z,1033.43
2023-01-24T08:51:35.685Z,1033.44
2023-01-24T08:52:35.700Z,1033.46
2023-01-24T08:53:35.647Z,1033.45
2023-01-24T08:54:35.654Z,1033.49
2023-01-24T08:55:35.673Z,1033.47
2023-01-24T08:56:35.644Z,1033.51
2023-01-24T08:57:35.630Z,1033.47
2023-01-24T08:58:35.644Z,1033.49
2023-01-24T08:59:35.642Z,1033.52
2023-01-24T09:00:35.628Z,1033.53
2023-01-24T09:01:35.649Z,1033.50
2023-01-24T09:02:35.628Z,1033.56
2023-01-24T09:03:35.600Z,1033.51
2023-01-24T09:04:35.598Z,1033.51
2023-01-24T09:05:35.690Z,1033.50
2023-01-24T09:06:35.602Z,1033.53
2023-01-24T09:07:35.590Z,1033.52
2023-01-24T09:08:36.862Z,1033.50
2023-01-24T09:09:35.591Z,1033.54
2023-01-24T09:10:35.563Z,1033.56
2023-01-24T09:11:35.572Z,1033.54
2023-01-24T09:12:35.554Z,1033.59
2023-01-24T09:13:35.539Z,1033.60
2023-01-24T09:14:35.550Z,1033.56
2023-01-24T09:15:35.544Z,1033.58
2023-01-24T09:16:35.592Z,1033.62
2023-01-24T09:17:35.566Z,1033.60
2023-01-24T09:18:35.521Z,1033.58
2023-01-24T09:19:35.514Z,1033.63
2023-01-24T09:20:35.503Z,1033.64
2023-01-24T09:21:35.507Z,1033.66
2023-01-24T09:22:35.497Z,1033.64
2023-01-24T09:23:35.497Z,1033.62
2023-01-24T09:24:35.517Z,1033.66
2023-01-24T09:25:35.490Z,1033.64
2023-01-24T09:26:35.487Z,1033.65
2023-01-24T09:27:35.488Z,1033.66
2023-01-24T09:28:35.474Z,1033.68
2023-01-24T09:29:36.687Z,1033.70
2023-01-24T09:30:35.451Z,1033.68
2023-01-24T09:31:35.547Z,1033.66
2023-01-24T09:32:35.470Z,1033.69
2023-01-24T09:33:35.434Z,1033.70
2023-01-24T09:34:35.442Z,1033.71
2023-01-24T09:35:35.421Z,1033.72
2023-01-24T09:36:35.421Z,1033.75
2023-01-24T09:37:35.426Z,1033.76
2023-01-24T09:38:35.421Z,1033.77
2023-01-24T09:39:35.401Z,1033.74
2023-01-24T09:40:35.416Z,1033.76
2023-01-24T09:41:35.389Z,1033.75
2023-01-24T09:42:35.390Z,1033.74
2023-01-24T09:43:35.410Z,1033.73
2023-01-24T09:44:35.401Z,1033.74
2023-01-24T09:45:35.445Z,1033.70
2023-01-24T09:46:35.369Z,1033.74
2023-01-24T09:47:35.389Z,1033.66
2023-01-24T09:48:35.364Z,1033.63
2023-01-24T09:49:35.366Z,1033.70
2023-01-24T09:50:35.352Z,1033.68
2023-01-24T09:51:35.333Z,1033.70
2023-01-24T09:52:35.350Z,1033.70
2023-01-24T09:53:35.357Z,1033.72
2023-01-24T09:54:35.336Z,1033.70
2023-01-24T09:55:35.350Z,1033.68
2023-01-24T09:56:35.310Z,1033.69
2023-01-24T09:57:35.329Z,1033.71
2023-01-24T09:58:35.303Z,1033.75
2023-01-24T09:59:35.359Z,1033.75
2023-01-24T10:00:35.282Z,1033.77
2023-01-24T10:01:35.346Z,1033.76
2023-01-24T10:02:35.286Z,1033.78
2023-01-24T10:03:35.308Z,1033.81
2023-01-24T10:04:35.282Z,1033.83
2023-01-24T10:05:35.282Z,1033.82
2023-01-24T10:06:35.265Z,1033.79
2023-01-24T10:07:35.262Z,1033.76
2023-01-24T10:08:35.237Z,1033.81
2023-01-24T10:09:35.241Z,1033.80
2023-01-24T10:10:35.227Z,1033.80
2023-01-24T10:11:35.225Z,1033.79
2023-01-24T10:12:35.231Z,1033.85
2023-01-24T10:13:35.236Z,1033.82
2023-01-24T10:14:35.247Z,1033.80
2023-01-24T10:15:35.230Z,1033.81
2023-01-24T10:16:35.217Z,1033.83
2023-01-24T10:17:35.210Z,1033.80
2023-01-24T10:18:35.192Z,1033.82
2023-01-24T10:19:35.180Z,1033.86
2023-01-24T10:20:35.217Z,1033.88
2023-01-24T10:21:35.198Z,1033.85
2023-01-24T10:22:35.185Z,1033.85
2023-01-24T10:23:35.160Z,1033.82
2023-01-24T10:24:35.164Z,1033.83
2023-01-24T10:25:35.169Z,1033.84
2023-01-24T10:26:35.135Z,1033.86
2023-01-24T10:27:35.160Z,1033.87
2023-01-24T10:28:35.148Z,1033.88
2023-01-24T10:29:35.134Z,1033.83
2023-01-24T10:30:35.191Z,1033.81
2023-01-24T10:31:35.260Z,1033.83
2023-01-24T10:32:35.120Z,1033.81
2023-01-24T10:33:35.114Z,1033.80
2023-01-24T10:34:35.093Z,1033.81
2023-01-24T10:35:35.094Z,1033.86
2023-01-24T10:36:35.101Z,1033.84
2023-01-24T10:37:35.089Z,1033.80
2023-01-24T10:38:35.082Z,1033.81
2023-01-24T10:39:35.083Z,1033.85
2023-01-24T10:40:35.061Z,1033.80
2023-01-24T10:41:35.059Z,1033.81
2023-01-24T10:42:35.052Z,1033.78
2023-01-24T10:43:35.047Z,1033.74
2023-01-24T10:44:35.045Z,1033.77
2023-01-24T10:45:35.041Z,1033.73
2023-01-24T10:46:35.029Z,1033.73
2023-01-24T10:47:35.055Z,1033.72
2023-01-24T10:48:35.022Z,1033.74
2023-01-24T10:49:35.006Z,1033.71
2023-01-24T10:50:35.019Z,1033.71
2023-01-24T10:51:35.031Z,1033.69
2023-01-24T10:52:34.992Z,1033.69
2023-01-24T10:53:35.010Z,1033.66
2023-01-24T10:54:34.993Z,1033.67
2023-01-24T10:55:34.990Z,1033.68
2023-01-24T10:56:34.970Z,1033.68
2023-01-24T10:57:34.973Z,1033.64
2023-01-24T10:58:36.923Z,1033.66
2023-01-24T10:59:34.952Z,1033.62
2023-01-24T11:00:34.943Z,1033.60
2023-01-24T11:01:35.002Z,1033.61
2023-01-24T11:02:34.993Z,1033.58
2023-01-24T11:03:34.955Z,1033.60
2023-01-24T11:04:34.938Z,1033.60
2023-01-24T11:05:34.917Z,1033.59
2023-01-24T11:06:34.929Z,1033.62
2023-01-24T11:07:34.907Z,1033.59
2023-01-24T11:08:34.899Z,1033.60
2023-01-24T11:09:34.903Z,1033.61
2023-01-24T11:10:34.885Z,1033.56
2023-01-24T11:11:34.906Z,1033.62
2023-01-24T11:12:34.875Z,1033.56
2023-01-24T11:13:34.897Z,1033.54
2023-01-24T11:14:34.872Z,1033.53
2023-01-24T11:15:34.865Z,1033.53
2023-01-24T11:16:34.934Z,1033.55
2023-01-24T11:17:34.862Z,1033.58
2023-01-24T11:18:34.838Z,1033.58
2023-01-24T11:19:34.877Z,1033.57
2023-01-24T11:20:34.839Z,1033.57
2023-01-24T11:21:34.841Z,1033.60
2023-01-24T11:22:34.827Z,1033.63
2023-01-24T11:23:34.832Z,1033.62
2023-01-24T11:24:34.828Z,1033.57
2023-01-24T11:25:34.811Z,1033.52
2023-01-24T11:26:34.791Z,1033.46
2023-01-24T11:27:34.795Z,1033.49
2023-01-24T11:28:34.796Z,1033.53
2023-01-24T11:29:34.791Z,1033.51
2023-01-24T11:30:34.776Z,1033.51
2023-01-24T11:31:35.012Z,1033.51
2023-01-24T11:32:34.765Z,1033.48
2023-01-24T11:33:34.774Z,1033.43
2023-01-24T11:34:34.755Z,1033.45
2023-01-24T11:35:34.781Z,1033.39
2023-01-24T11:36:34.751Z,1033.45
2023-01-24T11:37:34.747Z,1033.43
2023-01-24T11:38:34.742Z,1033.40
2023-01-24T11:39:34.745Z,1033.42
2023-01-24T11:40:34.726Z,1033.40
2023-01-24T11:41:34.708Z,1033.42
2023-01-24T11:42:34.702Z,1033.40
2023-01-24T11:43:34.699Z,1033.38
2023-01-24T11:44:34.695Z,1033.37
2023-01-24T11:45:34.700Z,1033.33
2023-01-24T11:46:34.691Z,1033.36
2023-01-24T11:47:34.729Z,1033.34
2023-01-24T11:48:34.673Z,1033.35
2023-01-24T11:49:34.683Z,1033.35
2023-01-24T11:50:34.657Z,1033.32
2023-01-24T11:51:34.689Z,1033.35
2023-01-24T11:52:34.649Z,1033.38
2023-01-24T11:53:34.661Z,1033.31
2023-01-24T11:54:34.633Z,1033.28
2023-01-24T11:55:34.658Z,1033.34
2023-01-24T11:56:34.632Z,1033.36
2023-01-24T11:57:34.642Z,1033.35
2023-01-24T11:58:34.628Z,1033.34
2023-01-24T11:59:34.621Z,1033.38
2023-01-24T12:00:34.600Z,1033.33
2023-01-24T12:01:34.608Z,1033.32
2023-01-24T12:02:34.629Z,1033.27
2023-01-24T12:03:34.626Z,1033.29
2023-01-24T12:04:34.581Z,1033.27
2023-01-24T12:05:34.572Z,1033.25
2023-01-24T12:06:34.563Z,1033.23